createdAt,value
2023-11-01T00:01:18.442Z,2.50
2023-11-01T00:03:47.380Z,3.10
2023-11-01T00:06:17.156Z,2.37
2023-11-01T00:08:45.761Z,3.00
2023-11-01T00:11:14.056Z,2.80
2023-11-01T00:13:42.316Z,2.70
2023-11-01T00:16:11.057Z,3.20
2023-11-01T00:18:39.367Z,2.40
2023-11-01T00:21:07.762Z,2.33
2023-11-01T00:23:37.485Z,2.97
2023-11-01T00:26:07.581Z,2.47
2023-11-01T00:28:35.974Z,2.63
2023-11-01T00:31:04.904Z,2.37
2023-11-01T00:33:33.282Z,2.37
2023-11-01T00:36:01.659Z,2.20
2023-11-01T00:38:30.667Z,3.03
2023-11-01T00:41:03.723Z,2.70
2023-11-01T00:43:32.124Z,2.20
2023-11-01T00:46:00.598Z,2.40
2023-11-01T00:48:28.846Z,2.33
2023-11-01T00:50:57.127Z,3.30
2023-11-01T00:53:25.455Z,2.60
2023-11-01T00:55:53.815Z,3.17
2023-11-01T00:58:24.010Z,3.00
2023-11-01T01:00:52.449Z,3.77
2023-11-01T01:03:20.790Z,3.30
2023-11-01T01:05:49.402Z,3.77
2023-11-01T01:08:18.126Z,3.43
2023-11-01T01:10:46.477Z,5.57
2023-11-01T01:13:14.777Z,4.10
2023-11-01T01:15:44.517Z,3.97
2023-11-01T01:18:15.798Z,4.87
2023-11-01T01:20:44.240Z,5.43
2023-11-01T01:23:12.644Z,4.30
2023-11-01T01:25:41.014Z,6.23
2023-11-01T01:28:09.757Z,5.17
2023-11-01T01:30:38.584Z,5.40
2023-11-01T01:33:08.661Z,6.20
2023-11-01T01:35:37.017Z,6.10
2023-11-01T01:38:05.830Z,5.37
2023-11-01T01:40:35.455Z,4.13
2023-11-01T01:43:12.048Z,4.43
2023-11-01T01:45:40.624Z,5.53
2023-11-01T01:48:10.353Z,4.40
2023-11-01T01:50:38.620Z,4.37
2023-11-01T01:53:07.213Z,5.03
2023-11-01T01:55:35.589Z,5.33
2023-11-01T01:58:04.568Z,5.37
2023-11-01T02:00:33.694Z,5.60
2023-11-01T02:03:02.376Z,5.53
2023-11-01T02:05:32.503Z,5.93
2023-11-01T02:08:01.626Z,5.27
2023-11-01T02:10:29.932Z,7.20
2023-11-01T02:12:58.160Z,6.43
2023-11-01T02:15:26.790Z,6.60
2023-11-01T02:17:55.058Z,6.33
2023-11-01T02:20:23.701Z,6.00
2023-11-01T02:22:56.973Z,6.60
2023-11-01T02:25:26.695Z,6.77
2023-11-01T02:27:54.970Z,6.27
2023-11-01T02:30:23.204Z,6.27
2023-11-01T02:32:51.462Z,6.93
2023-11-01T02:35:20.010Z,7.53
2023-11-01T02:37:49.887Z,5.57
2023-11-01T02:40:19.595Z,6.03
2023-11-01T02:42:52.395Z,6.03
2023-11-01T02:45:20.676Z,5.87
2023-11-01T02:47:50.065Z,5.73
2023-11-01T02:50:21.090Z,4.47
2023-11-01T02:52:50.265Z,5.67
2023-11-01T02:55:18.732Z,6.10
2023-11-01T02:57:47.135Z,5.20
2023-11-01T03:00:21.123Z,4.83
2023-11-01T03:02:50.489Z,4.87
2023-11-01T03:05:19.674Z,4.80
2023-11-01T03:07:48.063Z,3.93
2023-11-01T03:10:16.365Z,4.30
2023-11-01T03:12:44.777Z,4.37
2023-11-01T03:15:14.273Z,4.47
2023-11-01T03:17:44.770Z,4.30
2023-11-01T03:20:13.224Z,4.27
2023-11-01T03:22:41.864Z,3.87
2023-11-01T03:25:10.876Z,4.23
2023-11-01T03:27:39.629Z,5.00
2023-11-01T03:30:09.618Z,4.43
2023-11-01T03:32:37.923Z,4.97
2023-11-01T03:35:08.819Z,4.37
2023-11-01T03:37:37.154Z,5.17
2023-11-01T03:40:06.433Z,5.43
2023-11-01T03:42:34.829Z,5.60
2023-11-01T03:45:03.124Z,5.70
2023-11-01T03:47:32.472Z,5.33
2023-11-01T03:50:01.614Z,6.10
2023-11-01T03:52:31.435Z,6.13
2023-11-01T03:54:59.678Z,6.27
2023-11-01T03:57:27.890Z,6.93
2023-11-01T03:59:56.232Z,6.53
2023-11-01T04:02:24.757Z,5.97
2023-11-01T04:04:52.969Z,5.17
2023-11-01T04:07:21.161Z,6.30
2023-11-01T04:09:50.931Z,5.47
2023-11-01T04:12:19.133Z,4.67
2023-11-01T04:14:47.369Z,4.60
2023-11-01T04:17:15.681Z,5.00
2023-11-01T04:19:43.886Z,5.33
2023-11-01T04:22:12.127Z,4.60
2023-11-01T04:24:40.375Z,4.20
2023-11-01T04:27:09.965Z,3.87
2023-11-01T04:29:38.195Z,3.90
2023-11-01T04:32:06.928Z,4.20
2023-11-01T04:34:35.269Z,3.53
2023-11-01T04:37:03.516Z,3.50
2023-11-01T04:39:31.743Z,3.57
2023-11-01T04:42:00.091Z,4.87
2023-11-01T04:44:30.725Z,3.70
2023-11-01T04:46:59.148Z,3.10
2023-11-01T04:49:27.948Z,3.53
2023-11-01T04:51:56.166Z,3.47
2023-11-01T04:54:24.435Z,3.30
2023-11-01T04:56:52.702Z,3.37
2023-11-01T04:59:21.030Z,3.90
2023-11-01T05:01:50.788Z,3.73
2023-11-01T05:04:19.117Z,2.70
2023-11-01T05:06:48.466Z,3.73
2023-11-01T05:09:16.903Z,3.33
2023-11-01T05:11:45.754Z,3.30
2023-11-01T05:14:14.475Z,3.37
2023-11-01T05:16:42.902Z,3.37
2023-11-01T05:19:12.541Z,3.63
2023-11-01T05:21:43.390Z,3.60
2023-11-01T05:24:11.922Z,3.07
2023-11-01T05:26:40.584Z,3.60
2023-11-01T05:29:08.869Z,3.50
2023-11-01T05:31:37.063Z,3.20
2023-11-01T05:34:06.048Z,3.27
2023-11-01T05:36:35.659Z,3.20
2023-11-01T05:39:06.776Z,2.93
2023-11-01T05:41:35.267Z,3.00
2023-11-01T05:44:03.505Z,3.67
2023-11-01T05:46:31.760Z,3.27
2023-11-01T05:49:00.170Z,3.43
2023-11-01T05:51:28.382Z,2.87
2023-11-01T05:53:58.132Z,3.30
2023-11-01T05:56:28.257Z,3.43
2023-11-01T05:58:57.175Z,3.40
2023-11-01T06:01:26.231Z,3.10
2023-11-01T06:03:57.793Z,3.30
2023-11-01T06:06:26.315Z,3.07
2023-11-01T06:08:54.872Z,3.40
2023-11-01T06:11:25.811Z,3.00
2023-11-01T06:13:54.137Z,3.33
2023-11-01T06:16:22.536Z,3.77
2023-11-01T06:18:50.857Z,2.60
2023-11-01T06:21:19.135Z,3.07
2023-11-01T06:23:47.405Z,3.60
2023-11-01T06:26:17.633Z,3.10
2023-11-01T06:28:47.432Z,3.53
2023-11-01T06:31:17.232Z,3.20
2023-11-01T06:33:45.561Z,3.90
2023-11-01T06:36:13.838Z,3.43
2023-11-01T06:38:42.123Z,3.20
2023-11-01T06:41:10.390Z,3.17
2023-11-01T06:43:38.621Z,3.83
2023-11-01T06:46:08.243Z,2.90
2023-11-01T06:48:36.516Z,3.03
2023-11-01T06:51:05.278Z,3.27
2023-11-01T06:53:33.533Z,3.60
2023-11-01T06:56:01.815Z,3.10
2023-11-01T06:58:30.086Z,3.40
2023-11-01T07:00:58.319Z,3.73
2023-11-01T07:03:28.037Z,2.60
2023-11-01T07:05:57.084Z,3.13
2023-11-01T07:08:25.542Z,2.90
2023-11-01T07:10:53.827Z,2.70
2023-11-01T07:13:22.128Z,3.67
2023-11-01T07:15:50.380Z,3.87
2023-11-01T07:18:18.674Z,2.70
2023-11-01T07:20:48.455Z,2.60
2023-11-01T07:23:16.736Z,2.67
2023-11-01T07:25:45.254Z,2.80
2023-11-01T07:28:13.791Z,3.30
2023-11-01T07:30:43.519Z,3.10
2023-11-01T07:33:11.908Z,2.87
2023-11-01T07:35:40.295Z,2.83
2023-11-01T07:38:10.026Z,2.37
2023-11-01T07:40:38.455Z,2.77
2023-11-01T07:43:06.682Z,3.00
2023-11-01T07:45:34.971Z,2.90
2023-11-01T07:48:03.426Z,3.50
2023-11-01T07:50:33.645Z,3.20
2023-11-01T07:53:01.869Z,2.80
2023-11-01T07:55:32.273Z,2.73
2023-11-01T07:58:00.606Z,2.70
2023-11-01T08:00:28.812Z,3.07
2023-11-01T08:02:57.330Z,2.73
2023-11-01T08:05:25.706Z,2.57
2023-11-01T08:07:54.360Z,2.57
2023-11-01T08:10:23.176Z,2.47
2023-11-01T08:12:52.976Z,3.00
2023-11-01T08:15:21.256Z,2.43
2023-11-01T08:17:49.719Z,2.90
2023-11-01T08:20:18.139Z,2.90
2023-11-01T08:22:46.468Z,2.90
2023-11-01T08:25:14.898Z,2.77
2023-11-01T08:27:43.106Z,2.43
2023-11-01T08:30:13.902Z,2.43
2023-11-01T08:32:42.792Z,3.00
2023-11-01T08:35:11.581Z,2.70
2023-11-01T08:37:41.039Z,3.37
2023-11-01T08:40:10.752Z,3.10
2023-11-01T08:42:39.073Z,2.40
2023-11-01T08:45:08.660Z,3.00
2023-11-01T08:47:40.136Z,3.27
2023-11-01T08:50:11.407Z,2.77
2023-11-01T08:52:40.831Z,2.50
2023-11-01T08:55:10.947Z,2.90
2023-11-01T08:57:39.384Z,2.30
2023-11-01T09:00:09.657Z,2.53
2023-11-01T09:02:39.392Z,2.43
2023-11-01T09:05:08.130Z,2.70
2023-11-01T09:07:37.680Z,2.27
2023-11-01T09:10:08.978Z,2.30
2023-11-01T09:12:37.911Z,2.50
2023-11-01T09:15:06.873Z,2.33
2023-11-01T09:17:35.370Z,2.77
2023-11-01T09:20:05.772Z,2.00
2023-11-01T09:22:33.997Z,2.40
2023-11-01T09:25:02.237Z,2.50
2023-11-01T09:27:30.519Z,2.00
2023-11-01T09:29:58.850Z,2.73
2023-11-01T09:32:27.341Z,2.10
2023-11-01T09:34:55.630Z,2.13
2023-11-01T09:37:25.248Z,2.30
2023-11-01T09:39:53.527Z,2.00
2023-11-01T09:42:22.835Z,2.10
2023-11-01T09:44:57.007Z,2.30
2023-11-01T09:47:26.331Z,2.30
2023-11-01T09:49:55.995Z,2.87
2023-11-01T09:52:27.444Z,2.30
2023-11-01T09:54:55.853Z,1.93
2023-11-01T09:57:26.155Z,2.23
2023-11-01T09:59:54.476Z,2.73
2023-11-01T10:02:24.026Z,2.07
2023-11-01T10:04:52.892Z,2.13
2023-11-01T10:07:21.254Z,2.60
2023-11-01T10:09:51.878Z,2.03
2023-11-01T10:12:20.640Z,2.37
2023-11-01T10:14:49.289Z,2.17
2023-11-01T10:17:17.633Z,1.90
2023-11-01T10:19:46.046Z,1.97
2023-11-01T10:22:14.565Z,2.33
2023-11-01T10:24:43.880Z,2.40
2023-11-01T10:27:13.652Z,1.70
2023-11-01T10:29:46.907Z,2.73
2023-11-01T10:32:15.710Z,2.20
2023-11-01T10:34:44.132Z,1.90
2023-11-01T10:37:12.583Z,2.10
2023-11-01T10:39:41.423Z,1.80
2023-11-01T10:42:11.714Z,1.53
2023-11-01T10:44:41.486Z,2.23
2023-11-01T10:47:10.285Z,2.00
2023-11-01T10:49:39.498Z,1.90
2023-11-01T10:52:10.281Z,2.53
2023-11-01T10:54:39.549Z,1.87
2023-11-01T10:57:08.549Z,1.90
2023-11-01T10:59:44.353Z,1.70
2023-11-01T11:02:19.066Z,1.67
2023-11-01T11:04:54.236Z,1.50
2023-11-01T11:07:34.879Z,1.30
2023-11-01T11:10:25.221Z,1.50
2023-11-01T11:13:29.608Z,1.97
2023-11-01T11:16:02.828Z,1.83
2023-11-01T11:18:57.198Z,1.57
2023-11-01T11:21:56.676Z,1.40
2023-11-01T11:24:47.951Z,1.43
2023-11-01T11:27:53.118Z,1.77
2023-11-01T11:31:10.299Z,2.10
2023-11-01T11:33:40.806Z,1.77
2023-11-01T11:36:11.432Z,1.83
2023-11-01T11:38:40.331Z,1.57
2023-11-01T11:41:15.314Z,1.90
2023-11-01T11:44:03.466Z,1.63
2023-11-01T11:46:33.219Z,2.00
2023-11-01T11:49:01.888Z,1.40
2023-11-01T11:51:35.435Z,1.85
2023-11-01T11:54:15.381Z,1.60
2023-11-01T11:56:44.387Z,1.80
2023-11-01T11:59:19.200Z,1.90
2023-11-01T12:01:48.662Z,1.60
2023-11-01T12:04:17.340Z,2.00
2023-11-01T12:06:48.635Z,1.90
2023-11-01T12:09:19.024Z,1.80
2023-11-01T12:11:48.885Z,1.70
2023-11-01T12:14:21.474Z,1.33
2023-11-01T12:16:50.741Z,1.97
2023-11-01T12:19:20.411Z,1.80
2023-11-01T12:21:52.057Z,2.20
2023-11-01T12:24:21.837Z,1.53
2023-11-01T12:27:01.132Z,1.83
2023-11-01T12:29:52.754Z,1.63
2023-11-01T12:32:29.507Z,2.27
2023-11-01T12:35:06.123Z,1.90
2023-11-01T12:37:38.559Z,1.40
2023-11-01T12:40:11.958Z,1.23
2023-11-01T12:42:42.775Z,2.43
2023-11-01T12:45:12.505Z,1.73
2023-11-01T12:47:42.916Z,1.30
2023-11-01T12:50:13.127Z,1.60
2023-11-01T12:52:43.163Z,1.70
2023-11-01T12:55:12.027Z,2.03
2023-11-01T12:57:43.589Z,1.43
2023-11-01T13:00:14.299Z,1.83
2023-11-01T13:02:44.133Z,1.73
2023-11-01T13:05:12.892Z,1.77
2023-11-01T13:07:42.816Z,1.57
2023-11-01T13:10:12.528Z,1.93
2023-11-01T13:12:41.050Z,1.60
2023-11-01T13:15:11.036Z,1.70
2023-11-01T13:17:40.259Z,1.40
2023-11-01T13:20:09.821Z,1.87
2023-11-01T13:22:38.239Z,2.00
2023-11-01T13:25:08.948Z,1.70
2023-11-01T13:27:37.229Z,1.70
2023-11-01T13:30:06.425Z,1.77
2023-11-01T13:32:35.078Z,1.63
2023-11-01T13:35:03.615Z,1.77
2023-11-01T13:37:33.209Z,1.57
2023-11-01T13:40:01.809Z,1.73
2023-11-01T13:42:31.472Z,2.07
2023-11-01T13:44:59.731Z,1.90
2023-11-01T13:47:30.402Z,1.90
2023-11-01T13:50:00.284Z,1.60
2023-11-01T13:52:28.666Z,2.80
2023-11-01T13:54:56.944Z,1.97
2023-11-01T13:57:25.243Z,1.60
2023-11-01T13:59:55.032Z,1.90
2023-11-01T14:02:23.648Z,2.00
2023-11-01T14:04:51.987Z,1.70
2023-11-01T14:07:20.271Z,1.80
2023-11-01T14:09:48.627Z,1.80
2023-11-01T14:12:17.641Z,1.50
2023-11-01T14:14:45.926Z,1.50
2023-11-01T14:17:16.424Z,1.63
2023-11-01T14:19:44.778Z,1.67
2023-11-01T14:22:13.276Z,1.60
2023-11-01T14:24:41.514Z,1.67
2023-11-01T14:27:12.208Z,1.50
2023-11-01T14:29:40.617Z,1.70
2023-11-01T14:32:08.947Z,1.70
2023-11-01T14:34:38.573Z,1.50
2023-11-01T14:37:06.822Z,1.40
2023-11-01T14:39:35.078Z,1.40
2023-11-01T14:42:03.559Z,1.30
2023-11-01T14:44:32.005Z,1.40
2023-11-01T14:47:00.275Z,1.20
2023-11-01T14:49:28.562Z,1.70
2023-11-01T14:51:58.222Z,1.43
2023-11-01T14:54:27.321Z,1.30
2023-11-01T14:56:55.943Z,1.20
2023-11-01T14:59:25.263Z,1.83
2023-11-01T15:01:55.429Z,1.43
2023-11-01T15:04:23.830Z,1.37
2023-11-01T15:06:52.134Z,1.30
2023-11-01T15:09:22.015Z,1.40
2023-11-01T15:11:50.895Z,1.50
2023-11-01T15:14:19.602Z,1.30
2023-11-01T15:16:49.250Z,1.37
2023-11-01T15:19:18.086Z,1.30
2023-11-01T15:21:46.733Z,1.20
2023-11-01T15:24:16.022Z,1.20
2023-11-01T15:26:46.590Z,1.10
2023-11-01T15:29:14.996Z,1.10
2023-11-01T15:31:43.486Z,1.10
2023-11-01T15:34:11.799Z,1.30
2023-11-01T15:36:40.524Z,1.77
2023-11-01T15:39:08.898Z,1.30
2023-11-01T15:41:38.680Z,1.23
2023-11-01T15:44:08.733Z,1.27
2023-11-01T15:46:40.669Z,1.00
2023-11-01T15:49:09.979Z,1.40
2023-11-01T15:51:39.269Z,1.20
2023-11-01T15:54:11.205Z,1.40
2023-11-01T15:56:39.798Z,1.27
2023-11-01T15:59:10.047Z,1.37
2023-11-01T16:01:38.375Z,1.37
2023-11-01T16:04:07.221Z,1.10
2023-11-01T16:06:35.630Z,1.50
2023-11-01T16:09:05.978Z,1.33
2023-11-01T16:11:34.864Z,1.50
2023-11-01T16:14:05.670Z,1.57
2023-11-01T16:16:35.452Z,1.43
2023-11-01T16:19:03.786Z,1.67
2023-11-01T16:21:32.074Z,1.60
2023-11-01T16:24:01.637Z,1.40
2023-11-01T16:26:29.990Z,1.33
2023-11-01T16:28:58.286Z,1.47
2023-11-01T16:31:26.589Z,1.70
2023-11-01T16:33:56.428Z,1.90
2023-11-01T16:36:25.088Z,1.87
2023-11-01T16:38:53.381Z,1.53
2023-11-01T16:41:21.810Z,1.70
2023-11-01T16:43:50.163Z,2.10
2023-11-01T16:46:18.529Z,1.57
2023-11-01T16:48:46.842Z,1.50
2023-11-01T16:51:16.663Z,1.70
2023-11-01T16:53:45.076Z,1.60
2023-11-01T16:56:13.365Z,1.80
2023-11-01T16:58:41.679Z,1.90
2023-11-01T17:01:12.862Z,1.67
2023-11-01T17:03:41.256Z,1.60
2023-11-01T17:06:09.760Z,1.70
2023-11-01T17:08:39.454Z,1.80
2023-11-01T17:11:08.906Z,2.03
2023-11-01T17:13:37.716Z,1.73
2023-11-01T17:16:07.964Z,1.83
2023-11-01T17:18:37.406Z,1.87
2023-11-01T17:21:06.401Z,1.53
2023-11-01T17:23:36.380Z,1.37
2023-11-01T17:26:27.783Z,1.50
2023-11-01T17:28:57.195Z,1.80
2023-11-01T17:31:42.923Z,2.50
2023-11-01T17:34:12.435Z,1.53
2023-11-01T17:36:41.173Z,2.07
2023-11-01T17:39:09.976Z,2.17
2023-11-01T17:42:02.344Z,2.17
2023-11-01T17:44:35.114Z,2.30
2023-11-01T17:47:06.869Z,2.43
2023-11-01T17:49:52.563Z,2.37
2023-11-01T17:52:26.122Z,2.33
2023-11-01T17:54:58.073Z,2.30
2023-11-01T17:57:28.129Z,2.10
2023-11-01T17:59:57.613Z,2.33
2023-11-01T18:03:14.963Z,2.23
2023-11-01T18:05:46.864Z,2.30
2023-11-01T18:08:18.654Z,2.83
2023-11-01T18:10:51.994Z,3.47
2023-11-01T18:13:24.289Z,2.97
2023-11-01T18:15:55.064Z,3.23
2023-11-01T18:18:43.861Z,2.20
2023-11-01T18:21:16.462Z,2.17
2023-11-01T18:23:53.220Z,1.73
2023-11-01T18:26:22.228Z,2.17
2023-11-01T18:28:53.174Z,1.73
2023-11-01T18:31:23.791Z,2.10
2023-11-01T18:33:54.706Z,1.77
2023-11-01T18:36:23.510Z,2.10
2023-11-01T18:38:55.299Z,1.90
2023-11-01T18:41:27.931Z,1.57
2023-11-01T18:44:00.056Z,1.47
2023-11-01T18:46:34.338Z,1.43
2023-11-01T18:49:04.518Z,1.53
2023-11-01T18:51:55.919Z,1.50
2023-11-01T18:54:28.736Z,2.03
2023-11-01T18:56:56.996Z,1.53
2023-11-01T18:59:33.000Z,1.67
2023-11-01T19:02:04.585Z,1.60
2023-11-01T19:04:33.318Z,1.73
2023-11-01T19:07:05.742Z,1.57
2023-11-01T19:09:34.050Z,1.10
2023-11-01T19:12:02.470Z,1.77
2023-11-01T19:14:37.883Z,2.00
2023-11-01T19:17:06.374Z,2.23
2023-11-01T19:19:34.636Z,1.80
2023-11-01T19:22:02.931Z,1.20
2023-11-01T19:24:31.152Z,1.77
2023-11-01T19:27:02.646Z,1.63
2023-11-01T19:29:36.621Z,1.20
2023-11-01T19:32:05.552Z,1.70
2023-11-01T19:34:34.489Z,1.70
2023-11-01T19:37:05.840Z,1.90
2023-11-01T19:39:34.138Z,1.80
2023-11-01T19:42:02.480Z,1.77
2023-11-01T19:44:30.762Z,1.73
2023-11-01T19:47:00.829Z,1.40
2023-11-01T19:49:29.410Z,1.27
2023-11-01T19:51:57.702Z,1.33
2023-11-01T19:54:26.298Z,1.40
2023-11-01T19:56:54.672Z,1.47
2023-11-01T19:59:23.055Z,1.73
2023-11-01T20:01:51.506Z,2.00
2023-11-01T20:04:21.231Z,1.40
2023-11-01T20:06:50.660Z,1.90
2023-11-01T20:09:19.020Z,1.83
2023-11-01T20:11:48.914Z,1.70
2023-11-01T20:14:20.795Z,1.70
2023-11-01T20:16:49.273Z,1.90
2023-11-01T20:19:18.981Z,1.93
2023-11-01T20:21:48.707Z,1.77
2023-11-01T20:24:18.198Z,2.00
2023-11-01T20:26:46.590Z,1.87
2023-11-01T20:29:15.133Z,1.90
2023-11-01T20:31:43.390Z,1.97
2023-11-01T20:34:11.881Z,2.80
2023-11-01T20:36:40.213Z,1.90
2023-11-01T20:39:10.652Z,2.10
2023-11-01T20:41:40.428Z,1.90
2023-11-01T20:44:08.814Z,2.00
2023-11-01T20:46:37.095Z,1.77
2023-11-01T20:49:05.522Z,1.83
2023-11-01T20:51:33.896Z,1.77
2023-11-01T20:54:03.606Z,1.97
2023-11-01T20:56:35.679Z,1.63
2023-11-01T20:59:04.483Z,1.47
2023-11-01T21:01:32.807Z,1.50
2023-11-01T21:04:01.315Z,1.67
2023-11-01T21:06:29.809Z,1.90
2023-11-01T21:08:58.190Z,2.03
2023-11-01T21:11:26.479Z,1.63
2023-11-01T21:13:56.114Z,2.03
2023-11-01T21:16:24.494Z,1.83
2023-11-01T21:18:53.154Z,2.30
2023-11-01T21:21:21.638Z,2.07
2023-11-01T21:23:50.685Z,2.10
2023-11-01T21:26:19.080Z,2.50
2023-11-01T21:28:47.360Z,1.97
2023-11-01T21:31:17.064Z,2.20
2023-11-01T21:33:46.614Z,2.27
2023-11-01T21:36:15.112Z,2.50
2023-11-01T21:38:44.425Z,2.47
2023-11-01T21:41:12.918Z,2.80
2023-11-01T21:43:50.216Z,3.20
2023-11-01T21:46:27.469Z,2.57
2023-11-01T21:48:55.905Z,2.30
2023-11-01T21:51:24.501Z,1.90
2023-11-01T21:53:52.972Z,2.03
2023-11-01T21:56:24.834Z,1.90
2023-11-01T21:59:05.402Z,1.93
2023-11-01T22:01:35.781Z,2.07
2023-11-01T22:04:21.671Z,2.00
2023-11-01T22:06:57.708Z,2.30
2023-11-01T22:09:26.088Z,2.10
2023-11-01T22:11:54.607Z,2.43
2023-11-01T22:14:31.870Z,2.47
2023-11-01T22:17:03.963Z,2.23
2023-11-01T22:19:39.203Z,2.90
2023-11-01T22:22:31.535Z,2.10
2023-11-01T22:24:59.882Z,2.07
2023-11-01T22:27:36.111Z,2.13
2023-11-01T22:30:06.325Z,2.27
2023-11-01T22:32:36.376Z,2.40
2023-11-01T22:35:09.887Z,2.00
2023-11-01T22:37:38.647Z,2.50
2023-11-01T22:40:08.993Z,1.97
2023-11-01T22:42:37.358Z,2.00
2023-11-01T22:45:06.323Z,2.03
2023-11-01T22:47:36.647Z,1.50
2023-11-01T22:50:05.288Z,1.90
2023-11-01T22:52:33.551Z,2.00
2023-11-01T22:55:01.842Z,1.77
2023-11-01T22:57:31.520Z,1.60
2023-11-01T22:59:59.984Z,1.80
2023-11-01T23:02:28.298Z,1.80
2023-11-01T23:04:57.905Z,1.70
2023-11-01T23:07:26.233Z,1.90
2023-11-01T23:09:54.535Z,2.07
2023-11-01T23:12:22.977Z,2.07
2023-11-01T23:14:51.899Z,1.70
2023-11-01T23:17:20.747Z,1.77
2023-11-01T23:19:51.275Z,1.73
2023-11-01T23:22:22.703Z,1.57
2023-11-01T23:24:51.164Z,1.53
2023-11-01T23:27:19.510Z,2.40
2023-11-01T23:29:48.168Z,1.40
2023-11-01T23:32:17.305Z,1.60
2023-11-01T23:34:49.324Z,1.90
2023-11-01T23:37:34.790Z,1.93
2023-11-01T23:40:05.822Z,1.77
2023-11-01T23:42:34.600Z,1.90
2023-11-01T23:45:03.589Z,1.70
2023-11-01T23:47:52.192Z,1.67
2023-11-01T23:50:32.741Z,1.60
2023-11-01T23:53:04.124Z,2.30
2023-11-01T23:55:33.010Z,1.80
2023-11-01T23:58:01.994Z,1.67
